Weather at Triple R Airport [CLOSED]

Public forecast

Using degrees Fahrenheit for public forecast. Weather courtesy of forecast.io.

Closest aviation weather report (METAR) to Triple R Airport

Closest report is Stinson Municipal Airport, 5.3 nm (9.9 km) N.

2024/04/24 14:53 (retrieved 52 minutes ago)

KSSF 241453Z 16007KT 10SM OVC012 23/21 A3005 RMK AO2 SLP166 T02330206 51012

Closest aviation forecast (TAF) to Triple R Airport

Closest forecast is Stinson Municipal Airport, 5.3 nm (9.9 km) N.

2024/04/24 15:40 Ammendment (retrieved 5 minutes ago)

TAF AMD KSSF 241438Z 2415/2512 15010KT P6SM OVC015 FM241700 15010KT P6SM BKN025 FM241900 14012KT P6SM BKN040 FM250400 14012KT 6SM BR OVC015 FM250800 15010KT 5SM BR OVC007